CheckWX is a tool to help pilots better visualize weather data.  It is not intended as a substitute for an official pre-flight weather briefing.

01:23:54 UTC

KGLE METAR
Gainesville Municipal Airport
Gainesville, Texas, USA
Current

29 mins ago

KGLE 240055Z AUTO 17011KT 10SM SCT025 18/15 A2997 RMK AO2 T01800151
Observed
Mar-24 @ 00:55 UTC
Wind
  • 170° at 11 KTS
Visibility
10 SM
Flight Rules
VFR
Cloud Levels
  • Scattered at 2,500' AGL
Temperature
18°C / 64°F
Dewpoint
15°C / 59°F
Humidity
83%
Altimeter
29.97" Hg
Pressure
1014.92 hPa
Previous

49 mins ago

KGLE 240035Z AUTO 16012G17KT 10SM SCT025 18/15 A2997 RMK AO2 T01840151
Observed
Mar-24 @ 00:35 UTC
Wind
  • 160° at 12 KTS
  • Gusting to 17 KTS
Visibility
10 SM
Flight Rules
VFR
Cloud Levels
  • Scattered at 2,500' AGL
Temperature
18°C / 64°F
Dewpoint
15°C / 59°F
Humidity
83%
Altimeter
29.97" Hg
Pressure
1014.92 hPa
Previous

1 hour ago

KGLE 240015Z AUTO 17011KT 10SM SCT023 19/15 A2997 RMK AO2 T01900151
Observed
Mar-24 @ 00:15 UTC
Wind
  • 170° at 11 KTS
Visibility
10 SM
Flight Rules
VFR
Cloud Levels
  • Scattered at 2,300' AGL
Temperature
19°C / 66°F
Dewpoint
15°C / 59°F
Humidity
78%
Altimeter
29.97" Hg
Pressure
1014.92 hPa